sensor_id;sensor_type;location;lat;lon;timestamp;pressure;altitude;pressure_sealevel;temperature;humidity
5872;BME280;2962;51.312;7.378;2023-03-26T00:01:20;96642.69;;;4.72;100.00
5872;BME280;2962;51.312;7.378;2023-03-26T00:03:48;96638.25;;;4.80;100.00
5872;BME280;2962;51.312;7.378;2023-03-26T00:06:19;96642.97;;;4.83;100.00
5872;BME280;2962;51.312;7.378;2023-03-26T00:08:45;96620.78;;;4.58;100.00
5872;BME280;2962;51.312;7.378;2023-03-26T00:11:12;96643.91;;;4.90;100.00
5872;BME280;2962;51.312;7.378;2023-03-26T00:13:38;96643.03;;;4.86;100.00
5872;BME280;2962;51.312;7.378;2023-03-26T00:16:04;96638.88;;;4.89;100.00
5872;BME280;2962;51.312;7.378;2023-03-26T00:18:30;96645.00;;;5.05;100.00
5872;BME280;2962;51.312;7.378;2023-03-26T00:21:00;96639.25;;;5.07;100.00
5872;BME280;2962;51.312;7.378;2023-03-26T00:23:27;96642.56;;;5.16;100.00
5872;BME280;2962;51.312;7.378;2023-03-26T00:25:54;96643.34;;;5.17;100.00
5872;BME280;2962;51.312;7.378;2023-03-26T00:28:21;96651.81;;;5.15;100.00
5872;BME280;2962;51.312;7.378;2023-03-26T00:30:56;96640.69;;;5.01;100.00
5872;BME280;2962;51.312;7.378;2023-03-26T00:33:22;96640.72;;;5.20;100.00
5872;BME280;2962;51.312;7.378;2023-03-26T00:35:51;96631.25;;;5.10;100.00
5872;BME280;2962;51.312;7.378;2023-03-26T00:38:18;96627.69;;;5.06;100.00
5872;BME280;2962;51.312;7.378;2023-03-26T00:40:43;96631.31;;;5.14;100.00
5872;BME280;2962;51.312;7.378;2023-03-26T00:43:12;96631.25;;;5.10;100.00
5872;BME280;2962;51.312;7.378;2023-03-26T00:45:50;96612.69;;;5.09;100.00
5872;BME280;2962;51.312;7.378;2023-03-26T00:48:16;96611.44;;;5.22;100.00
5872;BME280;2962;51.312;7.378;2023-03-26T00:50:43;96603.22;;;4.99;100.00
5872;BME280;2962;51.312;7.378;2023-03-26T00:53:10;96622.28;;;5.06;100.00
5872;BME280;2962;51.312;7.378;2023-03-26T00:55:45;96615.28;;;5.21;100.00
5872;BME280;2962;51.312;7.378;2023-03-26T00:58:12;96610.41;;;5.11;100.00
5872;BME280;2962;51.312;7.378;2023-03-26T01:00:46;96600.63;;;5.22;100.00
5872;BME280;2962;51.312;7.378;2023-03-26T01:03:15;96611.50;;;5.26;100.00
5872;BME280;2962;51.312;7.378;2023-03-26T01:08:24;96598.75;;;5.23;100.00
5872;BME280;2962;51.312;7.378;2023-03-26T01:10:53;96595.81;;;5.12;100.00
5872;BME280;2962;51.312;7.378;2023-03-26T01:13:27;96587.81;;;5.00;100.00
5872;BME280;2962;51.312;7.378;2023-03-26T01:15:54;96588.47;;;5.12;100.00
5872;BME280;2962;51.312;7.378;2023-03-26T01:18:20;96584.84;;;5.05;100.00
5872;BME280;2962;51.312;7.378;2023-03-26T01:20:53;96587.53;;;5.05;100.00
5872;BME280;2962;51.312;7.378;2023-03-26T01:23:24;96574.75;;;5.02;100.00
5872;BME280;2962;51.312;7.378;2023-03-26T01:26:00;96583.41;;;5.11;100.00
5872;BME280;2962;51.312;7.378;2023-03-26T01:28:31;96571.06;;;5.10;100.00
5872;BME280;2962;51.312;7.378;2023-03-26T01:31:27;96574.47;;;5.07;100.00
5872;BME280;2962;51.312;7.378;2023-03-26T01:34:16;96574.97;;;5.12;100.00
5872;BME280;2962;51.312;7.378;2023-03-26T01:37:03;96569.91;;;5.11;100.00
5872;BME280;2962;51.312;7.378;2023-03-26T01:42:41;96564.66;;;5.18;100.00
5872;BME280;2962;51.312;7.378;2023-03-26T01:45:12;96562.34;;;5.17;100.00
5872;BME280;2962;51.312;7.378;2023-03-26T01:47:41;96562.53;;;5.08;100.00
5872;BME280;2962;51.312;7.378;2023-03-26T01:50:07;96549.75;;;5.05;100.00
5872;BME280;2962;51.312;7.378;2023-03-26T01:52:32;96554.53;;;5.11;100.00
5872;BME280;2962;51.312;7.378;2023-03-26T01:54:58;96547.69;;;5.18;100.00
5872;BME280;2962;51.312;7.378;2023-03-26T02:00:18;96546.13;;;5.17;100.00
5872;BME280;2962;51.312;7.378;2023-03-26T02:03:07;96536.09;;;5.17;100.00
5872;BME280;2962;51.312;7.378;2023-03-26T02:05:56;96519.97;;;5.01;100.00
5872;BME280;2962;51.312;7.378;2023-03-26T02:08:35;96529.72;;;5.06;100.00
5872;BME280;2962;51.312;7.378;2023-03-26T02:11:05;96524.75;;;5.08;100.00
5872;BME280;2962;51.312;7.378;2023-03-26T02:13:35;96520.84;;;5.05;100.00
5872;BME280;2962;51.312;7.378;2023-03-26T02:16:02;96527.53;;;5.11;100.00
5872;BME280;2962;51.312;7.378;2023-03-26T02:18:28;96523.91;;;5.23;100.00
5872;BME280;2962;51.312;7.378;2023-03-26T02:21:03;96517.66;;;5.19;100.00
5872;BME280;2962;51.312;7.378;2023-03-26T02:23:29;96505.34;;;5.22;100.00
5872;BME280;2962;51.312;7.378;2023-03-26T02:26:00;96502.16;;;5.16;100.00
5872;BME280;2962;51.312;7.378;2023-03-26T02:28:25;96494.75;;;5.13;100.00
5872;BME280;2962;51.312;7.378;2023-03-26T02:30:50;96497.75;;;5.27;100.00
5872;BME280;2962;51.312;7.378;2023-03-26T02:33:16;96498.94;;;5.30;100.00
5872;BME280;2962;51.312;7.378;2023-03-26T02:35:41;96500.16;;;5.32;100.00
5872;BME280;2962;51.312;7.378;2023-03-26T02:38:10;96491.59;;;5.30;100.00
5872;BME280;2962;51.312;7.378;2023-03-26T02:40:38;96496.31;;;5.33;100.00
5872;BME280;2962;51.312;7.378;2023-03-26T02:43:03;96498.38;;;5.40;100.00
5872;BME280;2962;51.312;7.378;2023-03-26T02:45:29;96488.63;;;5.35;100.00
5872;BME280;2962;51.312;7.378;2023-03-26T02:47:54;96477.75;;;5.32;100.00
5872;BME280;2962;51.312;7.378;2023-03-26T02:50:20;96477.84;;;5.35;100.00
5872;BME280;2962;51.312;7.378;2023-03-26T02:52:45;96489.03;;;5.37;100.00
5872;BME280;2962;51.312;7.378;2023-03-26T02:55:14;96482.88;;;5.37;100.00
5872;BME280;2962;51.312;7.378;2023-03-26T02:57:39;96486.78;;;5.39;100.00
5872;BME280;2962;51.312;7.378;2023-03-26T03:00:06;96481.06;;;5.45;100.00
5872;BME280;2962;51.312;7.378;2023-03-26T03:02:33;96471.72;;;5.38;100.00
5872;BME280;2962;51.312;7.378;2023-03-26T03:04:58;96467.31;;;5.30;100.00
5872;BME280;2962;51.312;7.378;2023-03-26T03:07:25;96460.78;;;5.31;100.00
5872;BME280;2962;51.312;7.378;2023-03-26T03:09:51;96465.19;;;5.20;100.00
5872;BME280;2962;51.312;7.378;2023-03-26T03:12:16;96460.66;;;5.24;100.00
5872;BME280;2962;51.312;7.378;2023-03-26T03:14:41;96427.91;;;5.06;100.00
5872;BME280;2962;51.312;7.378;2023-03-26T03:17:07;96446.00;;;5.25;100.00
5872;BME280;2962;51.312;7.378;2023-03-26T03:19:32;96440.47;;;5.18;100.00
5872;BME280;2962;51.312;7.378;2023-03-26T03:21:57;96433.75;;;5.08;100.00
5872;BME280;2962;51.312;7.378;2023-03-26T03:24:22;96434.75;;;5.00;100.00
5872;BME280;2962;51.312;7.378;2023-03-26T03:26:48;96414.78;;;4.85;100.00
5872;BME280;2962;51.312;7.378;2023-03-26T03:29:14;96439.47;;;5.07;100.00
5872;BME280;2962;51.312;7.378;2023-03-26T03:31:39;96428.97;;;5.02;100.00
5872;BME280;2962;51.312;7.378;2023-03-26T03:34:05;96430.13;;;5.01;100.00
5872;BME280;2962;51.312;7.378;2023-03-26T03:36:30;96411.09;;;4.94;100.00
5872;BME280;2962;51.312;7.378;2023-03-26T03:38:57;96430.53;;;5.03;100.00
5872;BME280;2962;51.312;7.378;2023-03-26T03:41:27;96423.66;;;5.05;100.00
5872;BME280;2962;51.312;7.378;2023-03-26T03:43:52;96421.59;;;4.99;100.00
5872;BME280;2962;51.312;7.378;2023-03-26T03:46:17;96427.41;;;5.01;100.00
5872;BME280;2962;51.312;7.378;2023-03-26T03:48:43;96421.09;;;5.12;100.00
5872;BME280;2962;51.312;7.378;2023-03-26T03:51:13;96408.22;;;5.06;100.00
5872;BME280;2962;51.312;7.378;2023-03-26T03:53:38;96413.28;;;5.07;100.00
5872;BME280;2962;51.312;7.378;2023-03-26T03:56:05;96399.13;;;4.95;100.00
5872;BME280;2962;51.312;7.378;2023-03-26T03:58:34;96412.41;;;5.03;100.00
5872;BME280;2962;51.312;7.378;2023-03-26T04:00:59;96411.22;;;5.01;100.00
5872;BME280;2962;51.312;7.378;2023-03-26T04:03:28;96412.63;;;5.14;100.00
5872;BME280;2962;51.312;7.378;2023-03-26T04:05:54;96411.50;;;5.15;100.00
5872;BME280;2962;51.312;7.378;2023-03-26T04:08:21;96414.19;;;5.15;100.00
5872;BME280;2962;51.312;7.378;2023-03-26T04:10:46;96398.84;;;5.19;100.00
5872;BME280;2962;51.312;7.378;2023-03-26T04:13:13;96399.19;;;5.18;100.00
5872;BME280;2962;51.312;7.378;2023-03-26T04:15:40;96395.16;;;5.08;100.00
5872;BME280;2962;51.312;7.378;2023-03-26T04:18:05;96381.66;;;5.08;100.00
5872;BME280;2962;51.312;7.378;2023-03-26T04:20:38;96380.38;;;5.02;100.00
5872;BME280;2962;51.312;7.378;2023-03-26T04:23:06;96382.50;;;5.12;100.00
5872;BME280;2962;51.312;7.378;2023-03-26T04:25:32;96367.72;;;5.06;100.00
5872;BME280;2962;51.312;7.378;2023-03-26T04:28:02;96365.91;;;4.90;100.00
5872;BME280;2962;51.312;7.378;2023-03-26T04:30:31;96367.47;;;4.92;100.00
5872;BME280;2962;51.312;7.378;2023-03-26T04:32:58;96362.88;;;4.92;100.00
5872;BME280;2962;51.312;7.378;2023-03-26T04:35:25;96359.66;;;4.86;100.00
5872;BME280;2962;51.312;7.378;2023-03-26T04:37:50;96346.75;;;4.76;100.00
5872;BME280;2962;51.312;7.378;2023-03-26T04:40:19;96352.97;;;4.80;100.00
5872;BME280;2962;51.312;7.378;2023-03-26T04:42:46;96340.81;;;4.67;100.00
5872;BME280;2962;51.312;7.378;2023-03-26T04:45:17;96344.88;;;4.80;100.00
5872;BME280;2962;51.312;7.378;2023-03-26T04:47:47;96334.97;;;4.84;100.00
5872;BME280;2962;51.312;7.378;2023-03-26T04:50:12;96350.25;;;4.77;100.00
5872;BME280;2962;51.312;7.378;2023-03-26T04:52:38;96332.84;;;4.74;100.00
5872;BME280;2962;51.312;7.378;2023-03-26T04:55:15;96332.41;;;4.72;100.00
5872;BME280;2962;51.312;7.378;2023-03-26T04:57:43;96331.63;;;4.72;100.00
5872;BME280;2962;51.312;7.378;2023-03-26T05:00:15;96336.44;;;4.82;100.00
5872;BME280;2962;51.312;7.378;2023-03-26T05:02:42;96325.72;;;4.85;100.00
5872;BME280;2962;51.312;7.378;2023-03-26T05:05:09;96315.56;;;4.79;100.00
5872;BME280;2962;51.312;7.378;2023-03-26T05:07:35;96317.88;;;4.77;100.00
5872;BME280;2962;51.312;7.378;2023-03-26T05:10:01;96299.56;;;4.67;100.00
5872;BME280;2962;51.312;7.378;2023-03-26T05:12:27;96304.31;;;4.73;100.00
5872;BME280;2962;51.312;7.378;2023-03-26T05:14:53;96309.72;;;4.73;100.00
5872;BME280;2962;51.312;7.378;2023-03-26T05:17:18;96303.50;;;4.73;100.00
5872;BME280;2962;51.312;7.378;2023-03-26T05:19:45;96300.41;;;4.71;100.00
5872;BME280;2962;51.312;7.378;2023-03-26T05:22:12;96297.91;;;4.81;100.00
5872;BME280;2962;51.312;7.378;2023-03-26T05:24:37;96292.25;;;4.67;100.00
5872;BME280;2962;51.312;7.378;2023-03-26T05:27:02;96286.41;;;4.65;100.00
5872;BME280;2962;51.312;7.378;2023-03-26T05:29:27;96291.09;;;4.68;100.00
5872;BME280;2962;51.312;7.378;2023-03-26T05:31:53;96274.28;;;4.55;100.00
5872;BME280;2962;51.312;7.378;2023-03-26T05:34:19;96286.00;;;4.63;100.00
5872;BME280;2962;51.312;7.378;2023-03-26T05:36:44;96287.91;;;4.62;100.00
5872;BME280;2962;51.312;7.378;2023-03-26T05:39:10;96283.72;;;4.65;100.00
5872;BME280;2962;51.312;7.378;2023-03-26T05:41:36;96282.53;;;4.62;100.00
5872;BME280;2962;51.312;7.378;2023-03-26T05:44:02;96285.22;;;4.62;100.00
5872;BME280;2962;51.312;7.378;2023-03-26T05:46:27;96272.44;;;4.59;100.00
5872;BME280;2962;51.312;7.378;2023-03-26T05:48:53;96263.88;;;4.54;100.00
5872;BME280;2962;51.312;7.378;2023-03-26T05:51:19;96258.75;;;4.49;100.00
5872;BME280;2962;51.312;7.378;2023-03-26T05:53:44;96268.53;;;4.57;100.00
5872;BME280;2962;51.312;7.378;2023-03-26T05:56:10;96258.56;;;4.57;100.00
5872;BME280;2962;51.312;7.378;2023-03-26T05:58:36;96251.16;;;4.54;100.00
5872;BME280;2962;51.312;7.378;2023-03-26T06:01:09;96252.34;;;4.57;100.00
5872;BME280;2962;51.312;7.378;2023-03-26T06:03:37;96254.63;;;4.55;100.00
5872;BME280;2962;51.312;7.378;2023-03-26T06:06:08;96245.00;;;4.54;100.00
5872;BME280;2962;51.312;7.378;2023-03-26T06:08:33;96238.09;;;4.56;100.00
5872;BME280;2962;51.312;7.378;2023-03-26T06:11:01;96228.00;;;4.53;100.00
5872;BME280;2962;51.312;7.378;2023-03-26T06:13:27;96243.78;;;4.51;100.00
5872;BME280;2962;51.312;7.378;2023-03-26T06:15:52;96233.47;;;4.57;100.00
5872;BME280;2962;51.312;7.378;2023-03-26T06:18:18;96228.81;;;4.54;100.00
5872;BME280;2962;51.312;7.378;2023-03-26T06:20:44;96227.38;;;4.60;100.00
5872;BME280;2962;51.312;7.378;2023-03-26T06:23:10;96229.66;;;4.58;100.00
5872;BME280;2962;51.312;7.378;2023-03-26T06:25:36;96227.28;;;4.56;100.00
5872;BME280;2962;51.312;7.378;2023-03-26T06:28:02;96209.81;;;4.47;100.00
5872;BME280;2962;51.312;7.378;2023-03-26T06:30:27;96217.28;;;4.57;100.00
5872;BME280;2962;51.312;7.378;2023-03-26T06:32:53;96225.03;;;4.58;100.00
5872;BME280;2962;51.312;7.378;2023-03-26T06:35:18;96224.72;;;4.63;100.00
5872;BME280;2962;51.312;7.378;2023-03-26T06:37:43;96218.94;;;4.61;100.00
5872;BME280;2962;51.312;7.378;2023-03-26T06:40:09;96220.47;;;4.62;100.00
5872;BME280;2962;51.312;7.378;2023-03-26T06:42:35;96209.03;;;4.69;100.00
5872;BME280;2962;51.312;7.378;2023-03-26T06:45:00;96218.56;;;4.63;100.00
5872;BME280;2962;51.312;7.378;2023-03-26T06:47:25;96210.66;;;4.74;100.00
5872;BME280;2962;51.312;7.378;2023-03-26T06:49:51;96220.28;;;4.75;100.00
5872;BME280;2962;51.312;7.378;2023-03-26T06:52:16;96214.72;;;4.64;100.00
5872;BME280;2962;51.312;7.378;2023-03-26T06:54:41;96208.16;;;4.65;100.00
5872;BME280;2962;51.312;7.378;2023-03-26T06:57:07;96203.59;;;4.65;100.00
5872;BME280;2962;51.312;7.378;2023-03-26T06:59:32;96212.13;;;4.71;100.00
5872;BME280;2962;51.312;7.378;2023-03-26T07:01:57;96201.03;;;4.76;100.00
5872;BME280;2962;51.312;7.378;2023-03-26T07:04:22;96200.63;;;4.74;100.00
5872;BME280;2962;51.312;7.378;2023-03-26T07:06:48;96200.31;;;4.79;100.00
5872;BME280;2962;51.312;7.378;2023-03-26T07:09:13;96191.06;;;4.77;100.00
5872;BME280;2962;51.312;7.378;2023-03-26T07:11:39;96195.66;;;4.76;100.00
5872;BME280;2962;51.312;7.378;2023-03-26T07:14:04;96193.38;;;4.78;100.00
5872;BME280;2962;51.312;7.378;2023-03-26T07:16:30;96177.56;;;4.77;100.00
5872;BME280;2962;51.312;7.378;2023-03-26T07:18:55;96171.91;;;4.85;100.00
5872;BME280;2962;51.312;7.378;2023-03-26T07:21:21;96176.22;;;4.90;100.00
5872;BME280;2962;51.312;7.378;2023-03-26T07:23:47;96166.41;;;4.78;100.00
5872;BME280;2962;51.312;7.378;2023-03-26T07:26:33;96163.31;;;4.80;100.00
5872;BME280;2962;51.312;7.378;2023-03-26T07:29:17;96164.06;;;4.77;100.00
5872;BME280;2962;51.312;7.378;2023-03-26T07:31:53;96162.53;;;4.79;100.00
5872;BME280;2962;51.312;7.378;2023-03-26T07:34:37;96161.88;;;4.86;100.00
5872;BME280;2962;51.312;7.378;2023-03-26T07:37:19;96155.72;;;4.85;100.00
5872;BME280;2962;51.312;7.378;2023-03-26T07:39:55;96157.63;;;4.85;100.00
5872;BME280;2962;51.312;7.378;2023-03-26T07:47:34;96136.00;;;4.81;100.00
5872;BME280;2962;51.312;7.378;2023-03-26T07:49:59;96126.31;;;4.80;100.00
5872;BME280;2962;51.312;7.378;2023-03-26T07:52:25;96130.16;;;4.79;100.00
5872;BME280;2962;51.312;7.378;2023-03-26T07:54:52;96127.13;;;4.81;100.00
5872;BME280;2962;51.312;7.378;2023-03-26T07:57:20;96133.47;;;4.92;100.00
5872;BME280;2962;51.312;7.378;2023-03-26T08:00:01;96137.00;;;4.96;100.00
5872;BME280;2962;51.312;7.378;2023-03-26T08:05:29;96123.28;;;5.08;100.00
5872;BME280;2962;51.312;7.378;2023-03-26T08:13:22;96120.53;;;5.05;100.00
5872;BME280;2962;51.312;7.378;2023-03-26T08:16:07;96106.34;;;5.11;100.00
5872;BME280;2962;51.312;7.378;2023-03-26T08:18:55;96118.31;;;5.14;100.00
5872;BME280;2962;51.312;7.378;2023-03-26T08:21:29;96096.28;;;5.08;100.00
5872;BME280;2962;51.312;7.378;2023-03-26T08:24:19;96108.41;;;5.22;100.00
5872;BME280;2962;51.312;7.378;2023-03-26T08:26:59;96097.16;;;5.16;100.00
5872;BME280;2962;51.312;7.378;2023-03-26T08:29:41;96106.41;;;5.15;100.00
5872;BME280;2962;51.312;7.378;2023-03-26T08:32:16;96090.16;;;5.11;100.00
5872;BME280;2962;51.312;7.378;2023-03-26T08:34:42;96101.84;;;5.19;100.00
5872;BME280;2962;51.312;7.378;2023-03-26T08:37:08;96098.31;;;5.19;100.00
5872;BME280;2962;51.312;7.378;2023-03-26T08:39:34;96088.59;;;5.10;100.00
5872;BME280;2962;51.312;7.378;2023-03-26T08:56:13;96092.75;;;5.04;100.00
5872;BME280;2962;51.312;7.378;2023-03-26T09:01:21;96094.06;;;5.18;100.00
5872;BME280;2962;51.312;7.378;2023-03-26T09:15:41;96087.84;;;5.13;100.00
5872;BME280;2962;51.312;7.378;2023-03-26T09:24:06;96086.69;;;5.14;100.00
5872;BME280;2962;51.312;7.378;2023-03-26T09:26:49;96084.81;;;5.19;100.00
5872;BME280;2962;51.312;7.378;2023-03-26T09:32:38;96073.16;;;5.11;100.00
5872;BME280;2962;51.312;7.378;2023-03-26T09:35:41;96067.75;;;5.07;100.00
5872;BME280;2962;51.312;7.378;2023-03-26T09:38:35;96074.75;;;5.12;100.00
5872;BME280;2962;51.312;7.378;2023-03-26T09:44:02;96063.84;;;5.05;100.00
5872;BME280;2962;51.312;7.378;2023-03-26T09:49:31;96063.28;;;5.56;100.00
5872;BME280;2962;51.312;7.378;2023-03-26T09:52:17;96066.97;;;5.41;100.00
5872;BME280;2962;51.312;7.378;2023-03-26T09:58:15;96057.16;;;5.25;100.00
5872;BME280;2962;51.312;7.378;2023-03-26T10:00:55;96060.91;;;5.17;100.00
5872;BME280;2962;51.312;7.378;2023-03-26T10:03:27;96061.59;;;5.10;100.00
5872;BME280;2962;51.312;7.378;2023-03-26T10:09:02;96044.88;;;4.45;100.00
5872;BME280;2962;51.312;7.378;2023-03-26T10:11:38;96057.19;;;4.46;100.00
5872;BME280;2962;51.312;7.378;2023-03-26T10:14:25;96061.31;;;4.36;100.00
5872;BME280;2962;51.312;7.378;2023-03-26T10:17:08;96046.88;;;4.25;100.00
5872;BME280;2962;51.312;7.378;2023-03-26T10:20:06;96048.03;;;4.24;100.00
5872;BME280;2962;51.312;7.378;2023-03-26T10:25:34;96054.19;;;4.24;100.00
5872;BME280;2962;51.312;7.378;2023-03-26T10:36:19;96050.34;;;4.25;100.00
5872;BME280;2962;51.312;7.378;2023-03-26T10:56:06;96030.03;;;4.31;100.00
5872;BME280;2962;51.312;7.378;2023-03-26T10:58:37;96028.78;;;4.25;100.00
5872;BME280;2962;51.312;7.378;2023-03-26T11:01:10;96028.06;;;4.28;100.00
5872;BME280;2962;51.312;7.378;2023-03-26T11:03:47;96024.09;;;4.22;100.00
5872;BME280;2962;51.312;7.378;2023-03-26T11:11:30;96025.59;;;4.43;100.00
5872;BME280;2962;51.312;7.378;2023-03-26T11:14:23;96024.94;;;4.53;100.00
5872;BME280;2962;51.312;7.378;2023-03-26T11:17:15;96013.81;;;4.54;100.00
5872;BME280;2962;51.312;7.378;2023-03-26T11:19:54;96007.44;;;4.39;100.00
5872;BME280;2962;51.312;7.378;2023-03-26T11:22:42;96006.41;;;4.48;100.00
5872;BME280;2962;51.312;7.378;2023-03-26T11:30:55;95995.19;;;4.46;100.00
5872;BME280;2962;51.312;7.378;2023-03-26T11:33:28;96004.72;;;4.66;100.00
5872;BME280;2962;51.312;7.378;2023-03-26T11:36:01;96004.19;;;4.83;100.00
5872;BME280;2962;51.312;7.378;2023-03-26T11:38:46;96009.03;;;5.01;100.00
5872;BME280;2962;51.312;7.378;2023-03-26T11:41:27;96006.38;;;5.04;100.00
5872;BME280;2962;51.312;7.378;2023-03-26T11:44:00;95993.84;;;5.19;100.00
5872;BME280;2962;51.312;7.378;2023-03-26T11:46:27;96004.72;;;5.30;100.00
5872;BME280;2962;51.312;7.378;2023-03-26T11:49:14;96000.28;;;5.45;100.00
5872;BME280;2962;51.312;7.378;2023-03-26T11:51:42;95994.88;;;5.45;100.00
5872;BME280;2962;51.312;7.378;2023-03-26T11:54:11;95984.03;;;5.41;100.00
5872;BME280;2962;51.312;7.378;2023-03-26T11:59:19;95983.91;;;5.68;100.00
5872;BME280;2962;51.312;7.378;2023-03-26T12:01:56;95996.03;;;5.84;100.00
5872;BME280;2962;51.312;7.378;2023-03-26T12:04:27;95984.78;;;6.20;100.00
5872;BME280;2962;51.312;7.378;2023-03-26T12:07:08;95980.75;;;6.03;100.00
5872;BME280;2962;51.312;7.378;2023-03-26T12:09:33;95975.53;;;6.24;100.00
5872;BME280;2962;51.312;7.378;2023-03-26T12:12:02;95968.91;;;6.18;100.00
5872;BME280;2962;51.312;7.378;2023-03-26T12:14:30;95978.72;;;6.41;100.00
5872;BME280;2962;51.312;7.378;2023-03-26T12:17:02;95977.19;;;6.40;100.00
5872;BME280;2962;51.312;7.378;2023-03-26T12:19:34;95963.72;;;6.50;100.00
5872;BME280;2962;51.312;7.378;2023-03-26T12:22:02;95966.06;;;6.55;100.00
5872;BME280;2962;51.312;7.378;2023-03-26T12:24:28;95958.75;;;6.59;100.00
5872;BME280;2962;51.312;7.378;2023-03-26T12:27:00;95956.44;;;6.58;100.00
5872;BME280;2962;51.312;7.378;2023-03-26T12:29:29;95951.06;;;6.65;100.00
5872;BME280;2962;51.312;7.378;2023-03-26T12:32:08;95962.34;;;6.81;100.00
5872;BME280;2962;51.312;7.378;2023-03-26T12:34:37;95959.84;;;6.48;100.00
5872;BME280;2962;51.312;7.378;2023-03-26T12:37:05;95953.22;;;6.42;100.00
5872;BME280;2962;51.312;7.378;2023-03-26T12:39:33;95967.03;;;6.26;100.00
5872;BME280;2962;51.312;7.378;2023-03-26T12:42:00;95962.69;;;6.14;100.00
5872;BME280;2962;51.312;7.378;2023-03-26T12:44:35;95956.88;;;6.08;100.00
5872;BME280;2962;51.312;7.378;2023-03-26T12:47:26;95964.28;;;6.15;100.00
5872;BME280;2962;51.312;7.378;2023-03-26T12:49:53;95960.38;;;6.13;100.00
5872;BME280;2962;51.312;7.378;2023-03-26T12:58:46;95965.56;;;6.35;100.00
5872;BME280;2962;51.312;7.378;2023-03-26T13:03:37;95956.16;;;6.15;100.00
5872;BME280;2962;51.312;7.378;2023-03-26T13:09:05;95962.25;;;6.05;100.00
5872;BME280;2962;51.312;7.378;2023-03-26T13:14:26;95959.13;;;6.03;100.00
5872;BME280;2962;51.312;7.378;2023-03-26T13:17:30;95955.53;;;5.88;100.00
5872;BME280;2962;51.312;7.378;2023-03-26T13:20:20;95959.91;;;6.00;100.00
5872;BME280;2962;51.312;7.378;2023-03-26T13:23:32;95963.34;;;5.97;100.00
5872;BME280;2962;51.312;7.378;2023-03-26T13:31:26;95961.22;;;6.20;100.00
5872;BME280;2962;51.312;7.378;2023-03-26T13:39:26;95958.50;;;6.20;100.00
5872;BME280;2962;51.312;7.378;2023-03-26T13:47:26;95959.13;;;6.03;100.00
5872;BME280;2962;51.312;7.378;2023-03-26T13:50:37;95966.50;;;6.06;100.00
5872;BME280;2962;51.312;7.378;2023-03-26T13:52:46;95957.00;;;6.30;100.00
5872;BME280;2962;51.312;7.378;2023-03-26T14:01:14;95965.88;;;6.23;100.00
5872;BME280;2962;51.312;7.378;2023-03-26T14:04:01;95960.91;;;6.32;100.00
5872;BME280;2962;51.312;7.378;2023-03-26T14:06:42;95968.63;;;6.34;100.00
5872;BME280;2962;51.312;7.378;2023-03-26T14:09:29;95963.56;;;6.29;100.00
5872;BME280;2962;51.312;7.378;2023-03-26T14:16:57;95970.47;;;6.81;100.00
5872;BME280;2962;51.312;7.378;2023-03-26T14:27:59;95970.63;;;7.24;100.00
5872;BME280;2962;51.312;7.378;2023-03-26T14:30:46;95970.66;;;7.35;100.00
5872;BME280;2962;51.312;7.378;2023-03-26T14:42:16;95980.66;;;7.13;100.00
5872;BME280;2962;51.312;7.378;2023-03-26T14:52:54;95992.34;;;6.00;100.00
5872;BME280;2962;51.312;7.378;2023-03-26T15:08:00;96018.56;;;5.25;100.00
5872;BME280;2962;51.312;7.378;2023-03-26T15:15:57;96030.22;;;5.32;100.00
5872;BME280;2962;51.312;7.378;2023-03-26T15:18:55;96031.69;;;5.23;100.00
5872;BME280;2962;51.312;7.378;2023-03-26T15:27:29;96051.34;;;4.93;100.00
5872;BME280;2962;51.312;7.378;2023-03-26T15:33:26;96054.03;;;4.93;100.00
5872;BME280;2962;51.312;7.378;2023-03-26T15:36:15;96060.94;;;4.90;100.00
5872;BME280;2962;51.312;7.378;2023-03-26T15:38:59;96059.50;;;4.97;100.00
5872;BME280;2962;51.312;7.378;2023-03-26T15:41:55;96064.50;;;4.98;100.00
5872;BME280;2962;51.312;7.378;2023-03-26T15:47:30;96071.34;;;4.88;100.00
5872;BME280;2962;51.312;7.378;2023-03-26T16:04:19;96092.28;;;4.99;100.00
5872;BME280;2962;51.312;7.378;2023-03-26T16:11:58;96108.25;;;4.81;100.00
5872;BME280;2962;51.312;7.378;2023-03-26T16:16:58;96114.28;;;4.74;100.00
5872;BME280;2962;51.312;7.378;2023-03-26T16:19:45;96106.88;;;4.68;100.00
5872;BME280;2962;51.312;7.378;2023-03-26T16:22:33;96117.03;;;4.51;100.00
5872;BME280;2962;51.312;7.378;2023-03-26T16:25:24;96118.22;;;4.54;100.00
5872;BME280;2962;51.312;7.378;2023-03-26T16:28:18;96117.94;;;4.36;100.00
5872;BME280;2962;51.312;7.378;2023-03-26T16:31:16;96133.97;;;4.52;100.00
5872;BME280;2962;51.312;7.378;2023-03-26T16:33:47;96135.66;;;4.60;100.00
5872;BME280;2962;51.312;7.378;2023-03-26T16:39:18;96112.63;;;4.66;100.00
5872;BME280;2962;51.312;7.378;2023-03-26T16:44:27;96147.78;;;4.96;100.00
5872;BME280;2962;51.312;7.378;2023-03-26T16:47:14;96156.66;;;4.97;100.00
5872;BME280;2962;51.312;7.378;2023-03-26T16:50:23;96165.00;;;4.88;100.00
5872;BME280;2962;51.312;7.378;2023-03-26T16:59:06;96180.06;;;4.66;100.00
5872;BME280;2962;51.312;7.378;2023-03-26T17:01:56;96176.72;;;4.50;100.00
5872;BME280;2962;51.312;7.378;2023-03-26T17:04:29;96194.03;;;4.49;100.00
5872;BME280;2962;51.312;7.378;2023-03-26T17:12:22;96213.16;;;4.40;100.00
5872;BME280;2962;51.312;7.378;2023-03-26T17:15:05;96209.09;;;4.30;100.00
5872;BME280;2962;51.312;7.378;2023-03-26T17:17:34;96213.22;;;4.44;100.00
5872;BME280;2962;51.312;7.378;2023-03-26T17:25:20;96232.25;;;4.31;100.00
5872;BME280;2962;51.312;7.378;2023-03-26T17:33:06;96245.47;;;3.98;100.00
5872;BME280;2962;51.312;7.378;2023-03-26T17:41:03;96271.56;;;3.94;100.00
5872;BME280;2962;51.312;7.378;2023-03-26T17:43:34;96267.63;;;3.91;100.00
5872;BME280;2962;51.312;7.378;2023-03-26T17:46:04;96276.09;;;3.89;100.00
5872;BME280;2962;51.312;7.378;2023-03-26T17:48:37;96279.94;;;3.88;100.00
5872;BME280;2962;51.312;7.378;2023-03-26T17:51:45;96286.16;;;3.92;100.00
5872;BME280;2962;51.312;7.378;2023-03-26T17:56:46;96300.75;;;3.91;100.00
5872;BME280;2962;51.312;7.378;2023-03-26T17:59:21;96303.81;;;3.90;100.00
5872;BME280;2962;51.312;7.378;2023-03-26T18:01:58;96311.28;;;3.97;100.00
5872;BME280;2962;51.312;7.378;2023-03-26T18:04:30;96308.84;;;3.91;100.00
5872;BME280;2962;51.312;7.378;2023-03-26T18:07:34;96312.34;;;3.76;100.00
5872;BME280;2962;51.312;7.378;2023-03-26T18:10:47;96327.81;;;3.79;100.00
5872;BME280;2962;51.312;7.378;2023-03-26T18:16:23;96336.34;;;3.81;100.00
5872;BME280;2962;51.312;7.378;2023-03-26T18:18:56;96341.28;;;3.79;100.00
5872;BME280;2962;51.312;7.378;2023-03-26T18:21:36;96340.09;;;3.77;100.00